createdAt,value
2022-08-26T00:00:42.732Z,100912.63
2022-08-26T00:03:14.359Z,100907.69
2022-08-26T00:05:46.437Z,100902.34
2022-08-26T00:08:17.955Z,100911.09
2022-08-26T00:10:50.226Z,100908.97
2022-08-26T00:13:21.983Z,100908.97
2022-08-26T00:15:54.068Z,100904.63
2022-08-26T00:18:25.925Z,100904.63
2022-08-26T00:20:58.114Z,100902.50
2022-08-26T00:23:29.655Z,100896.56
2022-08-26T00:26:02.253Z,100900.66
2022-08-26T00:28:33.768Z,100891.16
2022-08-26T00:31:06.196Z,100890.66
2022-08-26T00:33:38.479Z,100895.88
2022-08-26T00:36:14.444Z,100896.69
2022-08-26T00:38:52.067Z,100896.16
2022-08-26T00:41:23.588Z,100889.13
2022-08-26T00:43:55.539Z,100834.19
2022-08-26T00:46:29.180Z,100883.69
2022-08-26T00:49:01.217Z,100887.22
2022-08-26T00:51:33.713Z,100877.66
2022-08-26T00:54:06.042Z,100882.28
2022-08-26T00:56:38.143Z,100887.50
2022-08-26T00:59:10.016Z,100889.63
2022-08-26T01:01:41.541Z,100887.44
2022-08-26T01:04:13.493Z,100887.13
2022-08-26T01:06:45.019Z,100885.19
2022-08-26T01:09:17.200Z,100886.78
2022-08-26T01:11:48.824Z,100885.19
2022-08-26T01:14:20.851Z,100881.88
2022-08-26T01:16:52.378Z,100881.78
2022-08-26T01:19:23.900Z,100881.00
2022-08-26T01:21:55.424Z,100883.19
2022-08-26T01:24:27.996Z,100881.28
2022-08-26T01:26:59.547Z,100884.50
2022-08-26T01:29:31.426Z,100875.56
2022-08-26T01:32:02.965Z,100877.75
2022-08-26T01:34:37.039Z,100879.47
2022-08-26T01:37:15.550Z,100878.34
2022-08-26T01:39:48.066Z,100869.44
2022-08-26T01:42:19.649Z,100879.28
2022-08-26T01:44:51.827Z,100878.03
2022-08-26T01:47:23.452Z,100876.72
2022-08-26T01:49:55.385Z,100871.88
2022-08-26T01:52:28.231Z,100874.06
2022-08-26T01:55:00.472Z,100869.03
2022-08-26T01:57:32.022Z,100874.44
2022-08-26T02:00:04.362Z,100868.25
2022-08-26T02:02:36.415Z,100866.13
2022-08-26T02:05:08.313Z,100870.16
2022-08-26T02:07:39.850Z,100868.59
2022-08-26T02:10:11.380Z,100872.19
2022-08-26T02:12:42.924Z,100865.13
2022-08-26T02:15:14.911Z,100874.38
2022-08-26T02:17:48.803Z,100871.16
2022-08-26T02:20:26.432Z,100864.69
2022-08-26T02:22:58.890Z,100867.97
2022-08-26T02:25:30.783Z,100865.28
2022-08-26T02:28:02.338Z,100859.41
2022-08-26T02:30:34.499Z,100856.16
2022-08-26T02:33:07.355Z,100866.50
2022-08-26T02:35:39.823Z,100856.81
2022-08-26T02:38:11.413Z,100861.72
2022-08-26T02:40:44.187Z,100852.81
2022-08-26T02:43:15.719Z,100853.63
2022-08-26T02:45:47.936Z,100858.00
2022-08-26T02:48:19.623Z,100855.34
2022-08-26T02:50:51.488Z,100849.69
2022-08-26T02:53:25.449Z,100855.69
2022-08-26T02:55:57.375Z,100852.19
2022-08-26T02:58:31.763Z,100846.25
2022-08-26T03:01:04.984Z,100848.44
2022-08-26T03:03:36.937Z,100844.09
2022-08-26T03:06:08.893Z,100851.22
2022-08-26T03:08:40.408Z,100850.94
2022-08-26T03:11:12.749Z,100848.78
2022-08-26T03:13:45.226Z,100847.44
2022-08-26T03:16:17.204Z,100849.03
2022-08-26T03:18:52.426Z,100850.94
2022-08-26T03:21:24.400Z,100844.16
2022-08-26T03:23:58.587Z,100849.31
2022-08-26T03:26:30.811Z,100850.44
2022-08-26T03:29:21.222Z,100844.75
2022-08-26T03:31:53.589Z,100845.84
2022-08-26T03:34:25.516Z,100840.19
2022-08-26T03:36:57.243Z,100838.84
2022-08-26T03:39:31.600Z,100837.28
2022-08-26T03:42:04.296Z,100833.19
2022-08-26T03:44:36.113Z,100838.91
2022-08-26T03:47:11.720Z,100842.19
2022-08-26T03:49:43.691Z,100837.59
2022-08-26T03:52:16.753Z,100833.03
2022-08-26T03:54:48.279Z,100828.69
2022-08-26T03:57:19.844Z,100831.41
2022-08-26T03:59:51.703Z,100832.44
2022-08-26T04:02:23.321Z,100825.66
2022-08-26T04:04:54.934Z,100822.41
2022-08-26T04:07:27.064Z,100816.81
2022-08-26T04:09:59.001Z,100826.50
2022-08-26T04:12:30.631Z,100827.88
2022-08-26T04:15:02.501Z,100829.78
2022-08-26T04:17:34.527Z,100828.19
2022-08-26T04:20:07.448Z,100829.78
2022-08-26T04:22:39.000Z,100833.31
2022-08-26T04:25:12.247Z,100826.22
2022-08-26T04:27:43.763Z,100825.97
2022-08-26T04:30:16.666Z,100822.19
2022-08-26T04:32:48.693Z,100826.78
2022-08-26T04:35:25.641Z,100824.09
2022-08-26T04:37:58.245Z,100834.06
2022-08-26T04:40:30.206Z,100826.78
2022-08-26T04:43:02.268Z,100825.34
2022-08-26T04:45:34.138Z,100826.41
2022-08-26T04:48:05.880Z,100812.78
2022-08-26T04:50:43.437Z,100814.63
2022-08-26T04:53:15.132Z,100821.66
2022-08-26T04:55:48.387Z,100812.91
2022-08-26T04:58:20.136Z,100818.03
2022-08-26T05:00:52.523Z,100816.88
2022-08-26T05:03:27.265Z,100820.53
2022-08-26T05:06:02.536Z,100823.19
2022-08-26T05:08:34.573Z,100822.22
2022-08-26T05:11:06.200Z,100831.09
2022-08-26T05:13:41.346Z,100835.88
2022-08-26T05:16:13.250Z,100829.22
2022-08-26T05:18:45.654Z,100832.16
2022-08-26T05:21:18.246Z,100837.63
2022-08-26T05:23:51.327Z,100837.81
2022-08-26T05:26:23.369Z,100838.19
2022-08-26T05:28:58.095Z,100845.53
2022-08-26T05:31:31.036Z,100836.34
2022-08-26T05:34:03.865Z,100846.59
2022-08-26T05:36:35.508Z,100847.53
2022-08-26T05:39:07.468Z,100854.41
2022-08-26T05:41:39.348Z,100842.56
2022-08-26T05:44:11.194Z,100841.50
2022-08-26T05:46:44.113Z,100840.28
2022-08-26T05:49:16.539Z,100850.06
2022-08-26T05:51:48.134Z,100845.63
2022-08-26T05:54:22.695Z,100832.75
2022-08-26T05:56:54.201Z,100841.09
2022-08-26T05:59:26.799Z,100829.13
2022-08-26T06:01:59.681Z,100834.97
2022-08-26T06:04:31.808Z,100836.47
2022-08-26T06:07:03.521Z,100837.38
2022-08-26T06:09:37.066Z,100838.28
2022-08-26T06:12:12.887Z,100838.69
2022-08-26T06:14:48.993Z,100842.50
2022-08-26T06:17:20.643Z,100831.94
2022-08-26T06:19:52.495Z,100841.59
2022-08-26T06:22:59.310Z,100833.63
2022-08-26T06:25:40.402Z,100838.88
2022-08-26T06:28:13.444Z,100832.91
2022-08-26T06:30:45.543Z,100831.66
2022-08-26T06:33:17.199Z,100835.63
2022-08-26T06:35:50.517Z,100827.94
2022-08-26T06:38:22.311Z,100836.84
2022-08-26T06:40:55.167Z,100831.13
2022-08-26T06:43:26.743Z,100838.56
2022-08-26T06:45:58.626Z,100837.28
2022-08-26T06:48:30.206Z,100828.97
2022-08-26T06:51:02.054Z,100826.91
2022-08-26T06:53:33.579Z,100834.03
2022-08-26T06:56:06.555Z,100828.69
2022-08-26T06:58:38.111Z,100835.22
2022-08-26T07:01:11.699Z,100827.50
2022-08-26T07:03:43.350Z,100832.03
2022-08-26T07:06:21.359Z,100833.34
2022-08-26T07:08:53.449Z,100826.44
2022-08-26T07:11:25.489Z,100829.31
2022-08-26T07:13:59.453Z,100816.38
2022-08-26T07:16:32.190Z,100819.53
2022-08-26T07:19:11.078Z,100818.88
2022-08-26T07:21:42.933Z,100821.16
2022-08-26T07:24:15.008Z,100815.34
2022-08-26T07:26:46.682Z,100815.16
2022-08-26T07:29:20.045Z,100821.56
2022-08-26T07:31:56.363Z,100810.63
2022-08-26T07:34:28.811Z,100816.53
2022-08-26T07:37:01.090Z,100810.72
2022-08-26T07:39:33.029Z,100800.91
2022-08-26T07:42:07.566Z,100801.97
2022-08-26T07:44:40.523Z,100807.84
2022-08-26T07:47:24.835Z,100801.41
2022-08-26T07:49:57.913Z,100801.75
2022-08-26T07:52:29.432Z,100804.38
2022-08-26T07:55:01.396Z,100804.34
2022-08-26T07:57:34.507Z,100808.47
2022-08-26T08:00:07.426Z,100806.06
2022-08-26T08:02:38.934Z,100802.00
2022-08-26T08:05:10.955Z,100797.78
2022-08-26T08:07:45.598Z,100798.53
2022-08-26T08:10:18.769Z,100797.25
2022-08-26T08:12:52.613Z,100791.66
2022-08-26T08:15:26.911Z,100789.53
2022-08-26T08:18:00.647Z,100791.22
2022-08-26T08:20:32.798Z,100787.66
2022-08-26T08:23:05.120Z,100789.69
2022-08-26T08:25:38.375Z,100734.19
2022-08-26T08:28:10.036Z,100783.59
2022-08-26T08:30:42.837Z,100780.94
2022-08-26T08:33:14.833Z,100779.28
2022-08-26T08:35:46.757Z,100777.28
2022-08-26T08:38:18.275Z,100774.75
2022-08-26T08:40:50.224Z,100762.38
2022-08-26T08:43:22.380Z,100765.56
2022-08-26T08:45:54.515Z,100757.97
2022-08-26T08:48:27.822Z,100765.03
2022-08-26T08:51:00.138Z,100759.69
2022-08-26T08:53:31.682Z,100761.78
2022-08-26T08:56:03.251Z,100754.59
2022-08-26T08:58:36.384Z,100745.84
2022-08-26T09:01:08.276Z,100752.97
2022-08-26T09:03:41.824Z,100757.50
2022-08-26T09:06:20.376Z,100748.28
2022-08-26T09:08:52.245Z,100751.28
2022-08-26T09:11:24.227Z,100741.16
2022-08-26T09:13:56.255Z,100748.38
2022-08-26T09:16:27.834Z,100748.28
2022-08-26T09:18:59.711Z,100745.72
2022-08-26T09:21:31.355Z,100748.09
2022-08-26T09:24:03.341Z,100742.84
2022-08-26T09:26:34.882Z,100752.50
2022-08-26T09:29:09.072Z,100746.47
2022-08-26T09:31:41.422Z,100743.50
2022-08-26T09:34:17.285Z,100744.56
2022-08-26T09:36:49.240Z,100744.66
2022-08-26T09:39:21.067Z,100741.06
2022-08-26T09:41:52.910Z,100730.09
2022-08-26T09:44:25.468Z,100732.38
2022-08-26T09:46:57.338Z,100728.72
2022-08-26T09:49:35.111Z,100735.81
2022-08-26T09:52:07.484Z,100716.53
2022-08-26T09:54:40.245Z,100719.31
2022-08-26T09:57:12.836Z,100717.22
2022-08-26T09:59:45.339Z,100711.38
2022-08-26T10:02:16.930Z,100701.03
2022-08-26T10:04:49.272Z,100696.63
2022-08-26T10:07:21.482Z,100687.97
2022-08-26T10:09:53.401Z,100690.25
2022-08-26T10:12:25.685Z,100683.78
2022-08-26T10:14:57.240Z,100670.41
2022-08-26T10:17:30.909Z,100668.41
2022-08-26T10:20:03.090Z,100664.69
2022-08-26T10:22:35.055Z,100655.19
2022-08-26T10:25:06.631Z,100650.56
2022-08-26T10:27:38.561Z,100638.88
2022-08-26T10:30:22.816Z,100647.09
2022-08-26T10:32:54.803Z,100636.06
2022-08-26T10:35:27.059Z,100635.25
2022-08-26T10:37:59.057Z,100633.34
2022-08-26T10:40:31.258Z,100626.63
2022-08-26T10:43:08.495Z,100631.25
2022-08-26T10:45:42.781Z,100624.94
2022-08-26T10:48:15.377Z,100631.00
2022-08-26T10:50:47.446Z,100621.81
2022-08-26T10:53:19.663Z,100621.50
2022-08-26T10:55:57.016Z,100605.72
2022-08-26T10:58:28.933Z,100586.53
2022-08-26T11:01:22.826Z,100595.13
2022-08-26T11:03:55.633Z,100587.00
2022-08-26T11:06:29.662Z,100595.81
2022-08-26T11:09:01.852Z,100588.78
2022-08-26T11:11:35.148Z,100587.25
2022-08-26T11:14:07.866Z,100589.19
2022-08-26T11:16:42.929Z,100586.88
2022-08-26T11:19:15.262Z,100582.25
2022-08-26T11:21:47.907Z,100588.81
2022-08-26T11:24:22.327Z,100589.44
2022-08-26T11:26:56.173Z,100580.44
2022-08-26T11:29:28.213Z,100569.19
2022-08-26T11:31:59.863Z,100563.19
2022-08-26T11:34:31.485Z,100566.28
2022-08-26T11:37:04.053Z,100560.66
2022-08-26T11:39:36.938Z,100565.75
2022-08-26T11:42:10.543Z,100573.16
2022-08-26T11:44:49.112Z,100570.19
2022-08-26T11:47:22.519Z,100562.13
2022-08-26T11:49:56.069Z,100569.50
2022-08-26T11:52:29.179Z,100572.00
2022-08-26T11:55:01.411Z,100592.94
2022-08-26T11:57:33.421Z,100600.66
2022-08-26T12:00:07.279Z,100600.31
2022-08-26T12:02:40.310Z,100603.84
2022-08-26T12:05:12.091Z,100618.75
2022-08-26T12:07:44.496Z,100613.06
2022-08-26T12:10:16.319Z,100619.63
2022-08-26T12:12:48.174Z,100631.69
2022-08-26T12:15:20.352Z,100628.66
2022-08-26T12:17:54.325Z,100623.63
2022-08-26T12:20:26.139Z,100624.34
2022-08-26T12:22:58.834Z,100610.00
2022-08-26T12:25:36.193Z,100606.00
2022-08-26T12:28:08.544Z,100636.56
2022-08-26T12:30:40.162Z,100664.06
2022-08-26T12:33:22.915Z,100678.19
2022-08-26T12:35:56.643Z,100695.22
2022-08-26T12:38:28.799Z,100691.56
2022-08-26T12:41:00.485Z,100689.97
2022-08-26T12:43:32.083Z,100671.19
2022-08-26T12:46:06.806Z,100659.41
2022-08-26T12:48:39.048Z,100658.16
2022-08-26T12:51:10.603Z,100652.63
2022-08-26T12:53:42.588Z,100651.22
2022-08-26T12:56:14.108Z,100648.44
2022-08-26T12:58:46.341Z,100649.31
2022-08-26T13:01:18.585Z,100641.97
2022-08-26T13:03:50.521Z,100648.97
2022-08-26T13:06:29.671Z,100669.25
2022-08-26T13:09:01.589Z,100694.72
2022-08-26T13:11:33.121Z,100703.69
2022-08-26T13:14:06.973Z,100703.78
2022-08-26T13:16:39.297Z,100695.13
2022-08-26T13:19:11.342Z,100682.06
2022-08-26T13:21:42.919Z,100648.94
2022-08-26T13:24:14.768Z,100616.13
2022-08-26T13:26:46.302Z,100591.09
2022-08-26T13:29:18.222Z,100602.75
2022-08-26T13:31:49.828Z,100610.94
2022-08-26T13:34:21.885Z,100606.31
2022-08-26T13:36:54.090Z,100593.81
2022-08-26T13:39:26.137Z,100590.97
2022-08-26T13:41:57.777Z,100587.06
2022-08-26T13:44:29.345Z,100588.88
2022-08-26T13:47:00.871Z,100585.88
2022-08-26T13:49:32.730Z,100596.88
2022-08-26T13:52:04.302Z,100592.25
2022-08-26T13:54:36.511Z,100585.59
2022-08-26T13:57:08.092Z,100599.03
2022-08-26T13:59:40.017Z,100618.47
2022-08-26T14:02:12.008Z,100655.91
2022-08-26T14:04:43.924Z,100682.03
2022-08-26T14:07:15.467Z,100679.41
2022-08-26T14:09:47.363Z,100695.78
2022-08-26T14:12:18.944Z,100702.91
2022-08-26T14:14:50.833Z,100696.59
2022-08-26T14:17:22.424Z,100701.44
2022-08-26T14:19:54.498Z,100710.19
2022-08-26T14:22:26.043Z,100705.56
2022-08-26T14:24:58.004Z,100710.41
2022-08-26T14:27:29.570Z,100712.16
2022-08-26T14:30:01.517Z,100711.06
2022-08-26T14:32:33.319Z,100671.41
2022-08-26T14:35:05.238Z,100641.44
2022-08-26T14:37:37.210Z,100650.66
2022-08-26T14:40:09.304Z,100669.88
2022-08-26T14:42:41.256Z,100687.22
2022-08-26T14:45:13.790Z,100669.50
2022-08-26T14:47:45.347Z,100653.34
2022-08-26T14:50:17.782Z,100639.84
2022-08-26T14:53:08.292Z,100623.63
2022-08-26T14:55:39.878Z,100606.03
2022-08-26T14:58:11.785Z,100593.84
2022-08-26T15:00:43.306Z,100581.72
2022-08-26T15:05:51.668Z,100549.50
2022-08-26T15:08:23.688Z,100534.84
2022-08-26T15:10:55.267Z,100531.56
2022-08-26T15:13:27.366Z,100519.13
2022-08-26T15:15:59.013Z,100521.31
2022-08-26T15:18:31.934Z,100517.97
2022-08-26T15:21:03.478Z,100520.16
2022-08-26T15:23:35.557Z,100531.50
2022-08-26T15:26:07.407Z,100521.78
2022-08-26T15:28:39.307Z,100531.50
2022-08-26T15:31:10.983Z,100530.91
2022-08-26T15:33:43.139Z,100535.19
2022-08-26T15:36:14.707Z,100524.31
2022-08-26T15:38:46.570Z,100525.56
2022-08-26T15:41:18.093Z,100523.44
2022-08-26T15:43:49.984Z,100519.41
2022-08-26T15:46:21.575Z,100507.31
2022-08-26T15:48:53.566Z,100504.09
2022-08-26T15:51:25.143Z,100501.41
2022-08-26T15:53:57.214Z,100492.72
2022-08-26T15:56:28.811Z,100480.50
2022-08-26T15:59:01.435Z,100484.00
2022-08-26T16:01:33.566Z,100484.25
2022-08-26T16:04:05.559Z,100480.22
2022-08-26T16:06:37.141Z,100482.63
2022-08-26T16:09:09.102Z,100479.94
2022-08-26T16:11:40.888Z,100488.03
2022-08-26T16:14:12.607Z,100492.94
2022-08-26T16:16:44.143Z,100486.50
2022-08-26T16:19:15.807Z,100474.88
2022-08-26T16:21:47.986Z,100484.31
2022-08-26T16:24:25.900Z,100481.88
2022-08-26T16:26:58.822Z,100474.81
2022-08-26T16:29:32.818Z,100292.94
2022-08-26T16:32:08.615Z,100499.38
2022-08-26T16:34:46.988Z,100520.44
2022-08-26T16:37:28.073Z,100528.28
2022-08-26T16:40:00.079Z,100535.03
2022-08-26T16:42:31.716Z,100535.75
2022-08-26T16:45:03.564Z,100537.09
2022-08-26T16:47:35.140Z,100535.47
2022-08-26T16:50:08.691Z,100539.00
2022-08-26T16:52:40.309Z,100539.34
2022-08-26T16:55:12.236Z,100545.56
2022-08-26T16:57:43.757Z,100550.97
2022-08-26T17:00:17.341Z,100552.28
2022-08-26T17:02:49.236Z,100543.31
2022-08-26T17:05:21.134Z,100546.78
2022-08-26T17:07:52.884Z,100554.91
2022-08-26T17:10:24.851Z,100550.31
2022-08-26T17:12:56.560Z,100559.25
2022-08-26T17:15:28.420Z,100562.50
2022-08-26T17:18:00.449Z,100560.63
2022-08-26T17:20:32.323Z,100564.13
2022-08-26T17:23:04.257Z,100551.69
2022-08-26T17:25:35.854Z,100545.47
2022-08-26T17:28:13.177Z,100549.72
2022-08-26T17:30:45.143Z,100549.50
2022-08-26T17:33:18.664Z,100551.91
2022-08-26T17:35:53.717Z,100556.00
2022-08-26T17:38:25.626Z,100546.50
2022-08-26T17:40:57.466Z,100538.97
2022-08-26T17:43:29.670Z,100534.59
2022-08-26T17:46:06.628Z,100544.03
2022-08-26T17:48:39.152Z,100539.44
2022-08-26T17:51:11.047Z,100532.09
2022-08-26T17:53:42.961Z,100537.00
2022-08-26T17:56:14.557Z,100533.84
2022-08-26T17:58:51.036Z,100545.22
2022-08-26T18:01:23.639Z,100535.19
2022-08-26T18:04:00.074Z,100534.91
2022-08-26T18:06:32.545Z,100540.31
2022-08-26T18:09:04.154Z,100539.50
2022-08-26T18:11:35.711Z,100529.25
2022-08-26T18:14:07.275Z,100528.97
2022-08-26T18:16:39.497Z,100527.13
2022-08-26T18:19:11.040Z,100529.56
2022-08-26T18:21:42.620Z,100529.03
2022-08-26T18:24:14.509Z,100534.69
2022-08-26T18:26:49.489Z,100531.16
2022-08-26T18:29:21.882Z,100535.19
2022-08-26T18:31:53.452Z,100536.00
2022-08-26T18:34:25.052Z,100533.28
2022-08-26T18:37:03.363Z,100521.16
2022-08-26T18:39:35.084Z,100522.53
2022-08-26T18:42:06.641Z,100513.66
2022-08-26T18:44:38.567Z,100506.34
2022-08-26T18:47:10.074Z,100504.44
2022-08-26T18:49:42.038Z,100497.44
2022-08-26T18:52:13.572Z,100493.63
2022-08-26T18:54:45.217Z,100486.84
2022-08-26T18:57:17.253Z,100485.22
2022-08-26T18:59:49.119Z,100491.44
2022-08-26T19:02:20.719Z,100495.47
2022-08-26T19:04:52.827Z,100493.56
2022-08-26T19:07:25.371Z,100502.78
2022-08-26T19:09:57.305Z,100511.41
2022-08-26T19:12:30.000Z,100516.53
2022-08-26T19:15:04.333Z,100521.16
2022-08-26T19:17:36.191Z,100528.44
2022-08-26T19:20:07.728Z,100535.47
2022-08-26T19:22:39.733Z,100552.28
2022-08-26T19:25:11.300Z,100561.50
2022-08-26T19:27:42.885Z,100565.25
2022-08-26T19:30:15.069Z,100556.84
2022-08-26T19:32:47.083Z,100564.13
2022-08-26T19:35:18.606Z,100569.53
2022-08-26T19:37:50.456Z,100575.75
2022-08-26T19:40:23.365Z,100571.44
2022-08-26T19:42:54.952Z,100579.56
2022-08-26T19:45:26.518Z,100589.88
2022-08-26T19:47:58.798Z,100584.16
2022-08-26T19:50:30.333Z,100586.28
2022-08-26T19:53:04.380Z,100571.66
2022-08-26T19:55:36.042Z,100571.97
2022-08-26T19:58:08.037Z,100575.50
2022-08-26T20:00:42.109Z,100574.75
2022-08-26T20:03:16.018Z,100571.81
2022-08-26T20:05:48.800Z,100584.81
2022-08-26T20:08:22.812Z,100587.81
2022-08-26T20:10:54.441Z,100589.19
2022-08-26T20:13:26.521Z,100587.28
2022-08-26T20:15:58.062Z,100585.97
2022-08-26T20:18:48.486Z,100595.97
2022-08-26T20:21:29.484Z,100606.56
2022-08-26T20:24:01.358Z,100602.19
2022-08-26T20:26:32.898Z,100594.06
2022-08-26T20:29:04.735Z,100596.25
2022-08-26T20:31:36.312Z,100592.19
2022-08-26T20:34:08.359Z,100595.75
2022-08-26T20:36:39.920Z,100593.56
2022-08-26T20:39:11.798Z,100600.88
2022-08-26T20:41:43.819Z,100598.97
2022-08-26T20:44:17.072Z,100613.81
2022-08-26T20:46:48.586Z,100609.22
2022-08-26T20:49:20.439Z,100625.97
2022-08-26T20:51:52.027Z,100623.25
2022-08-26T20:54:28.149Z,100614.06
2022-08-26T20:57:00.096Z,100624.06
2022-08-26T20:59:31.911Z,100620.56
2022-08-26T21:02:03.459Z,100611.63
2022-08-26T21:04:35.429Z,100626.25
2022-08-26T21:07:07.399Z,100614.63
2022-08-26T21:09:38.922Z,100623.03
2022-08-26T21:12:10.842Z,100623.84
2022-08-26T21:14:44.771Z,100627.63
2022-08-26T21:17:19.339Z,100615.72
2022-08-26T21:19:51.103Z,100615.44
2022-08-26T21:22:22.925Z,100612.50
2022-08-26T21:24:54.453Z,100616.81
2022-08-26T21:27:26.703Z,100611.41
2022-08-26T21:29:59.454Z,100608.75
2022-08-26T21:32:31.300Z,100599.78
2022-08-26T21:35:02.831Z,100600.56
2022-08-26T21:37:34.690Z,100597.59
2022-08-26T21:40:06.924Z,100591.94
2022-08-26T21:42:38.946Z,100583.81
2022-08-26T21:45:10.466Z,100590.84
2022-08-26T21:47:42.583Z,100586.53
2022-08-26T21:50:14.111Z,100583.00
2022-08-26T21:52:46.204Z,100589.75
2022-08-26T21:55:17.876Z,100591.13
2022-08-26T21:57:49.903Z,100614.16
2022-08-26T22:00:21.532Z,100623.94
2022-08-26T22:02:53.504Z,100629.06
2022-08-26T22:05:25.042Z,100634.50
2022-08-26T22:07:56.913Z,100626.91
2022-08-26T22:10:28.428Z,100631.47
2022-08-26T22:13:00.383Z,100607.66
2022-08-26T22:15:35.293Z,100601.16
2022-08-26T22:18:09.363Z,100602.75
2022-08-26T22:20:41.007Z,100601.94
2022-08-26T22:23:12.927Z,100601.16
2022-08-26T22:25:44.456Z,100587.66
2022-08-26T22:28:16.340Z,100585.50
2022-08-26T22:30:48.404Z,100571.72
2022-08-26T22:33:20.298Z,100560.66
2022-08-26T22:35:53.094Z,100560.16
2022-08-26T22:38:25.134Z,100556.91
2022-08-26T22:40:57.212Z,100543.41
2022-08-26T22:43:30.447Z,100542.91
2022-08-26T22:46:03.678Z,100536.44
2022-08-26T22:48:35.557Z,100518.09
2022-08-26T22:51:07.549Z,100503.25
2022-08-26T22:53:42.165Z,100502.97
2022-08-26T22:56:15.419Z,100496.75
2022-08-26T22:58:47.792Z,100500.84
2022-08-26T23:01:20.740Z,100503.25
2022-08-26T23:03:52.870Z,100495.44
2022-08-26T23:06:24.920Z,100490.88
2022-08-26T23:08:56.694Z,100486.84
2022-08-26T23:11:28.804Z,100495.25
2022-08-26T23:14:02.847Z,100514.97
2022-08-26T23:16:39.409Z,100540.91
2022-08-26T23:19:11.252Z,100550.06
2022-08-26T23:21:43.210Z,100546.28
2022-08-26T23:24:14.828Z,100557.63
2022-08-26T23:26:46.791Z,100549.50
2022-08-26T23:29:18.456Z,100541.38
2022-08-26T23:31:51.045Z,100550.59
2022-08-26T23:34:41.598Z,100549.78
2022-08-26T23:37:13.565Z,100457.00
2022-08-26T23:39:45.582Z,100557.34
2022-08-26T23:42:17.992Z,100560.88
2022-08-26T23:44:49.706Z,100551.16
2022-08-26T23:47:21.898Z,100548.47
2022-08-26T23:49:53.534Z,100538.72
2022-08-26T23:52:44.481Z,100531.16
2022-08-26T23:55:16.686Z,100540.06
2022-08-26T23:57:48.415Z,100539.78
